Time;durP1;ratioP1;P1;durP2;ratioP2;P2;SDS_P1;SDS_P2;PMS_P1;PMS_P2;Temp;Humidity;BMP_temperature;BMP_pressure;BME280_temperature;BME280_humidity;BME280_pressure;Samples;Min_cycle;Max_cycle;Signal;HPM_P1;HPM_P2
2021/06/12 00:02:16;;;;;;;;;1.50;1.50;;;;;22.32;55.00;101807.94;5067462;27;45857;-66
2021/06/12 00:04:41;;;;;;;;;1.00;1.00;;;;;22.29;55.03;101804.84;5069543;27;45427;-66
2021/06/12 00:07:07;;;;;;;;;2.00;2.00;;;;;22.25;55.21;101806.25;5076717;27;45510;-65
2021/06/12 00:09:32;;;;;;;;;1.75;1.00;;;;;22.21;55.73;101805.03;5071761;27;45427;-66
2021/06/12 00:11:58;;;;;;;;;1.50;1.00;;;;;22.15;55.52;101805.78;5068471;27;45463;-65
2021/06/12 00:14:24;;;;;;;;;2.00;2.00;;;;;22.12;55.29;101813.22;5066135;27;47220;-66
2021/06/12 00:16:50;;;;;;;;;3.00;1.25;;;;;22.09;55.99;101812.81;5071900;27;45368;-67
2021/06/12 00:19:15;;;;;;;;;1.00;1.00;;;;;22.05;55.58;101816.91;5070413;27;45521;-66
2021/06/12 00:21:41;;;;;;;;;1.75;1.75;;;;;22.03;55.59;101814.44;5070098;27;45444;-65
2021/06/12 00:24:08;;;;;;;;;2.00;2.00;;;;;22.06;55.54;101829.34;5069540;27;45914;-66
2021/06/12 00:26:34;;;;;;;;;1.00;1.00;;;;;22.06;55.47;101832.06;5073157;27;45617;-67
2021/06/12 00:29:00;;;;;;;;;2.00;1.75;;;;;22.08;55.56;101830.81;5067442;27;45476;-66
2021/06/12 00:31:26;;;;;;;;;3.75;1.00;;;;;22.09;55.33;101821.69;5070432;27;45717;-66
2021/06/12 00:33:52;;;;;;;;;2.00;2.00;;;;;22.10;55.23;101815.28;5067553;27;45666;-67
2021/06/12 00:36:20;;;;;;;;;3.00;2.75;;;;;22.10;55.32;101812.59;5068573;27;45542;-66
2021/06/12 00:38:46;;;;;;;;;1.00;1.00;;;;;22.10;55.63;101823.34;5072593;27;45510;-65
2021/06/12 00:41:12;;;;;;;;;1.25;1.25;;;;;22.11;55.51;101827.72;5065855;27;45594;-66
2021/06/12 00:43:40;;;;;;;;;1.25;1.25;;;;;22.10;55.81;101826.03;5070024;27;46737;-66
2021/06/12 00:46:05;;;;;;;;;4.00;2.00;;;;;22.11;56.05;101838.50;5063428;27;45453;-67
2021/06/12 00:48:31;;;;;;;;;1.25;1.25;;;;;22.10;56.37;101833.28;5067314;27;45527;-66
2021/06/12 00:50:56;;;;;;;;;2.75;2.00;;;;;22.11;56.79;101840.34;5068954;27;45509;-66
2021/06/12 00:53:37;;;;;;;;;2.75;2.75;;;;;22.12;56.65;101842.84;5070677;27;45986;-66
2021/06/12 00:56:07;;;;;;;;;4.00;2.25;;;;;22.12;56.34;101837.44;5070840;27;45536;-66
2021/06/12 00:58:35;;;;;;;;;2.00;2.00;;;;;22.14;56.88;101839.13;5075568;27;45622;-66
2021/06/12 01:01:00;;;;;;;;;2.00;2.00;;;;;22.14;56.23;101841.81;5071856;27;45551;-66
2021/06/12 01:03:28;;;;;;;;;3.00;3.00;;;;;22.08;56.84;101840.72;5072262;27;46334;-66
2021/06/12 01:05:57;;;;;;;;;5.00;2.75;;;;;22.03;56.90;101830.59;5068461;27;45528;-65
2021/06/12 01:08:23;;;;;;;;;4.00;4.00;;;;;22.00;56.76;101833.66;5075040;27;45467;-66
2021/06/12 01:10:49;;;;;;;;;3.00;3.00;;;;;21.95;57.07;101836.13;5067916;27;45523;-66
2021/06/12 01:13:38;;;;;;;;;4.00;2.00;;;;;21.87;57.06;101830.91;5070600;27;46589;-67
2021/06/12 01:16:32;;;;;;;;;2.00;2.00;;;;;21.79;57.63;101825.69;5066927;27;45830;-65
2021/06/12 01:19:05;;;;;;;;;2.75;2.00;;;;;21.69;57.79;101820.66;5068110;27;45680;-66
2021/06/12 01:21:44;;;;;;;;;2.00;2.00;;;;;21.61;57.90;101826.16;5071161;27;45972;-65
2021/06/12 01:24:16;;;;;;;;;2.00;2.00;;;;;21.52;58.27;101821.97;5067269;27;45510;-66
2021/06/12 01:27:02;;;;;;;;;2.50;2.00;;;;;21.45;58.30;101819.22;5072156;27;45646;-66
2021/06/12 01:30:05;;;;;;;;;3.75;2.00;;;;;21.38;58.16;101818.31;5070197;27;45532;-66
2021/06/12 01:32:32;;;;;;;;;3.00;2.00;;;;;21.32;58.49;101813.72;5068771;27;45491;-65
2021/06/12 01:35:01;;;;;;;;;1.00;1.00;;;;;21.27;58.31;101817.00;5069887;27;45491;-66
2021/06/12 01:37:27;;;;;;;;;2.75;2.00;;;;;21.23;58.61;101816.53;5069683;27;45507;-66
2021/06/12 01:39:54;;;;;;;;;1.75;1.75;;;;;21.20;58.44;101811.53;5070992;27;45471;-66
2021/06/12 01:42:20;;;;;;;;;1.50;1.25;;;;;21.15;58.67;101807.78;5065692;27;45546;-66
2021/06/12 01:44:47;;;;;;;;;2.50;2.50;;;;;21.10;58.82;101813.75;5068346;27;47167;-67
2021/06/12 01:47:14;;;;;;;;;2.00;2.00;;;;;21.07;59.17;101806.06;5067230;27;45456;-66
2021/06/12 01:49:41;;;;;;;;;2.00;2.00;;;;;21.04;59.24;101811.81;5068940;27;45544;-67
2021/06/12 01:52:07;;;;;;;;;2.25;2.25;;;;;21.01;59.40;101822.94;5066961;27;45573;-67
2021/06/12 01:54:35;;;;;;;;;3.00;2.75;;;;;20.97;59.52;101817.13;5075992;27;45391;-66
2021/06/12 01:57:01;;;;;;;;;4.00;3.00;;;;;20.97;59.21;101819.00;5065956;27;45569;-67
2021/06/12 01:59:27;;;;;;;;;2.25;2.25;;;;;20.91;59.53;101817.88;5062561;27;45839;-66
2021/06/12 02:01:56;;;;;;;;;2.75;2.25;;;;;20.88;59.26;101814.75;5070708;27;45501;-65
2021/06/12 02:04:23;;;;;;;;;3.50;2.75;;;;;20.84;59.41;101817.00;5068855;27;46400;-66
2021/06/12 02:06:50;;;;;;;;;3.75;2.00;;;;;20.80;59.69;101821.91;5063471;27;45586;-64
2021/06/12 02:09:16;;;;;;;;;2.50;2.50;;;;;20.76;59.90;101817.94;5067760;27;45368;-65
2021/06/12 02:11:43;;;;;;;;;3.75;2.50;;;;;20.73;59.93;101825.56;5070770;27;45600;-65
2021/06/12 02:14:09;;;;;;;;;3.75;2.50;;;;;20.69;60.17;101826.97;5073539;27;45518;-65
2021/06/12 02:16:37;;;;;;;;;3.00;3.00;;;;;20.67;60.50;101824.44;5071172;27;45533;-66
2021/06/12 02:19:05;;;;;;;;;2.50;2.00;;;;;20.62;60.76;101826.88;5077607;27;45531;-66
2021/06/12 02:21:34;;;;;;;;;3.00;3.00;;;;;20.60;60.36;101827.09;5070778;27;45371;-66
2021/06/12 02:23:59;;;;;;;;;3.50;2.00;;;;;20.60;60.67;101834.31;5070595;27;45578;-65
2021/06/12 02:26:28;;;;;;;;;3.00;3.00;;;;;20.58;60.65;101836.34;5070176;27;45505;-64
2021/06/12 02:28:55;;;;;;;;;3.50;2.00;;;;;20.55;60.50;101837.56;5067937;27;45543;-67
2021/06/12 02:31:26;;;;;;;;;2.75;2.75;;;;;20.52;60.55;101845.09;5071752;27;45598;-65
2021/06/12 02:33:51;;;;;;;;;3.00;3.00;;;;;20.49;60.54;101834.75;5069971;27;45499;-65
2021/06/12 02:36:17;;;;;;;;;3.50;2.00;;;;;20.45;60.96;101842.38;5066693;27;45649;-66
2021/06/12 02:38:43;;;;;;;;;3.00;3.00;;;;;20.43;60.89;101851.63;5065544;27;45516;-65
2021/06/12 02:41:08;;;;;;;;;2.00;2.00;;;;;20.39;60.75;101851.16;5076737;27;45717;-66
2021/06/12 02:43:34;;;;;;;;;1.75;1.75;;;;;20.35;61.04;101853.41;5074459;27;46282;-66
2021/06/12 02:46:04;;;;;;;;;3.25;1.75;;;;;20.32;60.96;101851.06;5069443;27;45508;-66
2021/06/12 02:48:32;;;;;;;;;3.25;2.50;;;;;20.28;60.86;101849.78;5069590;27;45644;-68
2021/06/12 02:50:59;;;;;;;;;2.00;2.00;;;;;20.26;61.03;101849.13;5077195;27;45433;-67
2021/06/12 02:53:28;;;;;;;;;2.25;2.25;;;;;20.22;60.66;101845.16;5070005;27;45499;-63
2021/06/12 02:55:58;;;;;;;;;1.75;1.75;;;;;20.19;60.66;101840.16;5071229;27;45888;-68
2021/06/12 02:58:26;;;;;;;;;2.25;2.25;;;;;20.18;60.79;101843.88;5075417;27;45461;-65
2021/06/12 03:00:53;;;;;;;;;4.25;2.00;;;;;20.15;60.62;101849.59;5075945;27;45448;-65
2021/06/12 03:03:19;;;;;;;;;1.75;1.25;;;;;20.12;60.74;101844.59;5078310;27;46130;-64
2021/06/12 03:06:04;;;;;;;;;2.00;2.00;;;;;20.07;60.37;101841.66;5070368;27;45456;-67
2021/06/12 03:08:35;;;;;;;;;2.50;2.50;;;;;20.02;60.93;101841.38;5079437;27;45506;-62
2021/06/12 03:11:03;;;;;;;;;2.00;2.00;;;;;19.96;60.48;101840.28;5077533;27;45668;-67
2021/06/12 03:13:30;;;;;;;;;0.50;0.50;;;;;19.92;60.72;101834.41;5073044;27;46067;-62
2021/06/12 03:16:00;;;;;;;;;1.25;1.25;;;;;19.89;60.30;101833.97;5079345;27;46042;-62
2021/06/12 03:18:26;;;;;;;;;2.25;1.75;;;;;19.84;60.62;101831.84;5066436;27;45496;-62
2021/06/12 03:20:58;;;;;;;;;3.00;1.00;;;;;19.80;60.51;101829.69;5071203;27;45482;-65
2021/06/12 03:23:26;;;;;;;;;1.00;1.00;;;;;19.76;60.63;101829.25;5067546;27;48049;-65
2021/06/12 03:25:53;;;;;;;;;1.00;1.00;;;;;19.73;60.55;101824.22;5067102;27;46395;-63
2021/06/12 03:28:19;;;;;;;;;2.50;1.50;;;;;19.70;60.77;101829.97;5077915;27;45821;-66
2021/06/12 03:30:46;;;;;;;;;1.00;1.00;;;;;19.66;60.48;101825.97;5068944;27;45557;-66
2021/06/12 03:33:13;;;;;;;;;1.00;1.00;;;;;19.62;60.53;101838.06;5075876;27;47894;-65
2021/06/12 03:35:39;;;;;;;;;1.00;1.00;;;;;19.59;60.96;101838.44;5070579;27;45934;-63
2021/06/12 03:38:05;;;;;;;;;0.50;0.50;;;;;19.57;60.70;101840.47;5068406;27;45501;-68
2021/06/12 03:40:31;;;;;;;;;2.00;2.00;;;;;19.55;61.14;101838.78;5072791;27;45404;-64
2021/06/12 03:42:57;;;;;;;;;1.75;1.00;;;;;19.53;61.23;101834.63;5067451;27;45504;-63
2021/06/12 03:45:23;;;;;;;;;3.50;2.25;;;;;19.50;60.65;101841.19;5073031;27;46022;-67
2021/06/12 03:47:51;;;;;;;;;3.25;2.25;;;;;19.48;60.89;101845.88;5068913;27;45385;-65
2021/06/12 03:50:19;;;;;;;;;1.25;1.25;;;;;19.46;60.78;101855.97;5069740;27;45563;-62
2021/06/12 03:52:46;;;;;;;;;1.75;1.25;;;;;19.43;61.06;101847.44;5069277;27;45649;-63
2021/06/12 03:55:11;;;;;;;;;1.50;1.50;;;;;19.40;60.51;101842.47;5068985;27;45511;-64
2021/06/12 03:57:37;;;;;;;;;1.25;1.25;;;;;19.39;60.65;101852.34;5075204;27;45496;-68
2021/06/12 04:00:08;;;;;;;;;0.75;0.75;;;;;19.39;60.79;101849.66;5069994;27;45589;-65
2021/06/12 04:02:34;;;;;;;;;2.00;0.50;;;;;19.41;60.58;101857.50;5069657;27;46011;-67
2021/06/12 04:04:59;;;;;;;;;0.50;0.50;;;;;19.40;60.41;101864.72;5070754;27;45499;-66
2021/06/12 04:07:26;;;;;;;;;0.75;0.75;;;;;19.39;60.69;101871.13;5074933;27;45428;-65
2021/06/12 04:09:51;;;;;;;;;1.50;1.25;;;;;19.39;60.92;101864.94;5068112;27;45636;-62
2021/06/12 04:12:17;;;;;;;;;1.50;0.00;;;;;19.37;60.34;101872.31;5071913;27;46788;-66
2021/06/12 04:14:42;;;;;;;;;0.50;0.50;;;;;19.38;60.82;101864.06;5078933;27;45573;-63
2021/06/12 04:17:07;;;;;;;;;0.25;0.00;;;;;19.41;59.97;101870.91;5075389;27;45471;-65
2021/06/12 04:19:33;;;;;;;;;0.75;0.75;;;;;19.44;60.07;101873.25;5070255;27;45698;-62
2021/06/12 04:21:58;;;;;;;;;1.00;1.00;;;;;19.49;60.09;101874.38;5075361;27;45976;-66
2021/06/12 04:24:24;;;;;;;;;1.00;1.00;;;;;19.53;60.31;101867.66;5068659;27;46178;-63
2021/06/12 04:26:49;;;;;;;;;1.50;0.50;;;;;19.58;60.24;101864.41;5068744;27;45369;-67
2021/06/12 04:29:15;;;;;;;;;0.50;0.50;;;;;19.63;60.50;101872.72;5065526;27;45433;-63
2021/06/12 04:31:40;;;;;;;;;1.00;1.00;;;;;19.66;60.32;101863.53;5074756;27;46177;-68
2021/06/12 04:34:05;;;;;;;;;0.75;0.75;;;;;19.67;60.23;101866.03;5070014;27;45764;-64
2021/06/12 04:36:31;;;;;;;;;1.25;1.25;;;;;19.71;59.98;101866.50;5066025;27;45699;-66
2021/06/12 04:38:56;;;;;;;;;0.75;0.75;;;;;19.73;60.02;101867.13;5070181;27;45365;-62
2021/06/12 04:41:22;;;;;;;;;1.00;1.00;;;;;19.72;59.88;101869.00;5071935;27;46226;-62
2021/06/12 04:43:47;;;;;;;;;1.50;0.75;;;;;19.73;60.23;101875.19;5067787;27;45784;-62
2021/06/12 04:46:13;;;;;;;;;1.50;1.50;;;;;19.74;60.53;101874.19;5071280;27;45499;-66
2021/06/12 04:48:39;;;;;;;;;0.25;0.25;;;;;19.75;59.87;101875.84;5066879;27;45672;-63
2021/06/12 04:51:05;;;;;;;;;1.00;1.00;;;;;19.76;59.82;101874.84;5065789;27;46350;-66
2021/06/12 04:53:31;;;;;;;;;1.50;0.75;;;;;19.77;60.25;101879.19;5066581;27;45909;-66
2021/06/12 04:55:59;;;;;;;;;1.00;1.00;;;;;19.75;60.04;101874.00;5079018;27;45976;-65
2021/06/12 04:58:25;;;;;;;;;2.50;1.00;;;;;19.75;60.17;101881.22;5067004;27;45947;-62
2021/06/12 05:00:52;;;;;;;;;0.75;0.75;;;;;19.72;60.48;101881.56;5070916;27;45804;-67
2021/06/12 05:03:21;;;;;;;;;2.50;1.00;;;;;19.71;60.05;101883.44;5072183;27;45451;-64
2021/06/12 05:05:48;;;;;;;;;1.00;1.00;;;;;19.73;60.15;101888.59;5071488;27;45335;-70
2021/06/12 05:08:14;;;;;;;;;1.00;1.00;;;;;19.72;59.92;101887.78;5069632;27;45459;-65
2021/06/12 05:10:40;;;;;;;;;0.75;0.75;;;;;19.73;60.34;101884.09;5073727;27;45447;-66
2021/06/12 05:13:06;;;;;;;;;0.75;0.75;;;;;19.76;60.43;101889.09;5065635;27;45429;-68
2021/06/12 05:15:31;;;;;;;;;3.75;1.50;;;;;19.79;60.25;101887.06;5062391;27;45350;-63
2021/06/12 05:17:59;;;;;;;;;0.50;0.50;;;;;19.81;60.06;101885.84;5066981;27;45489;-63
2021/06/12 05:20:25;;;;;;;;;1.00;1.00;;;;;19.82;59.82;101890.19;5067274;27;45463;-66
2021/06/12 05:22:51;;;;;;;;;2.00;1.50;;;;;19.86;60.04;101893.38;5067358;27;45982;-66
2021/06/12 05:25:16;;;;;;;;;0.50;0.50;;;;;19.90;60.04;101894.63;5069923;27;45484;-65
2021/06/12 05:27:42;;;;;;;;;0.75;0.75;;;;;19.92;60.02;101888.06;5067948;27;45559;-66
2021/06/12 05:30:08;;;;;;;;;1.25;1.25;;;;;19.94;59.93;101891.41;5067649;27;45540;-68
2021/06/12 05:32:33;;;;;;;;;1.00;1.00;;;;;20.00;59.80;101889.00;5069814;27;45707;-66
2021/06/12 05:35:01;;;;;;;;;2.25;1.00;;;;;20.07;60.10;101889.94;5070276;27;45570;-66
2021/06/12 05:37:26;;;;;;;;;2.25;1.75;;;;;20.17;59.78;101890.50;5067102;27;45747;-64
2021/06/12 05:39:52;;;;;;;;;0.50;0.50;;;;;20.25;59.47;101893.13;5061822;27;47189;-64
2021/06/12 05:42:17;;;;;;;;;1.25;1.25;;;;;20.37;59.71;101890.78;5075422;27;45479;-66
2021/06/12 05:44:42;;;;;;;;;0.75;0.75;;;;;20.48;59.20;101884.13;5064001;27;45404;-65
2021/06/12 05:47:08;;;;;;;;;2.00;2.00;;;;;20.54;58.52;101878.81;5060069;27;46188;-64
2021/06/12 05:49:33;;;;;;;;;1.00;1.00;;;;;20.56;58.29;101878.66;5076063;27;45707;-67
2021/06/12 05:51:58;;;;;;;;;1.00;1.00;;;;;20.54;58.62;101886.03;5071237;27;45588;-66
2021/06/12 05:54:24;;;;;;;;;1.75;1.75;;;;;20.55;58.15;101893.13;5066807;27;45413;-67
2021/06/12 05:56:49;;;;;;;;;2.25;0.75;;;;;20.59;58.57;101889.84;5068231;27;45541;-67
2021/06/12 05:59:15;;;;;;;;;1.75;1.75;;;;;20.63;58.02;101890.31;5066397;27;46287;-66
2021/06/12 06:01:40;;;;;;;;;2.50;1.75;;;;;20.76;58.62;101897.72;5068816;27;45629;-66
2021/06/12 06:04:05;;;;;;;;;1.00;1.00;;;;;20.90;58.50;101896.00;5062864;27;45448;-62
2021/06/12 06:06:31;;;;;;;;;1.50;1.50;;;;;21.02;58.08;101895.31;5071711;27;45560;-62
2021/06/12 06:08:56;;;;;;;;;1.00;1.00;;;;;21.17;57.54;101906.03;5067857;27;46139;-62
2021/06/12 06:11:21;;;;;;;;;1.50;1.50;;;;;21.26;57.29;101895.97;5066935;27;45538;-65
2021/06/12 06:13:47;;;;;;;;;2.75;1.25;;;;;21.38;57.56;101888.22;5071170;27;46024;-62
2021/06/12 06:16:13;;;;;;;;;1.50;1.00;;;;;21.51;57.21;101888.34;5066599;27;45527;-62
2021/06/12 06:18:39;;;;;;;;;1.25;1.25;;;;;21.64;56.92;101899.25;5061397;27;46066;-65
2021/06/12 06:21:06;;;;;;;;;1.50;1.50;;;;;21.77;56.41;101898.50;5072146;27;45531;-64
2021/06/12 06:23:32;;;;;;;;;1.00;1.00;;;;;21.89;56.58;101891.56;5062705;27;45496;-65
2021/06/12 06:25:57;;;;;;;;;1.00;1.00;;;;;22.03;55.75;101897.03;5061815;27;45529;-64
2021/06/12 06:28:23;;;;;;;;;1.00;1.00;;;;;22.16;55.81;101896.31;5073631;27;45491;-64
2021/06/12 06:30:48;;;;;;;;;1.25;1.25;;;;;22.22;55.39;101899.03;5067444;27;45432;-65
2021/06/12 06:33:14;;;;;;;;;1.25;1.25;;;;;22.29;55.32;101891.84;5070664;27;45416;-62
2021/06/12 06:35:39;;;;;;;;;1.25;1.25;;;;;22.37;55.35;101890.00;5068129;27;45482;-62
2021/06/12 06:38:05;;;;;;;;;1.00;1.00;;;;;22.46;55.21;101891.50;5065879;27;45885;-65
2021/06/12 06:40:30;;;;;;;;;2.00;2.00;;;;;22.59;54.70;101906.91;5067844;27;45625;-62
2021/06/12 06:42:56;;;;;;;;;2.00;2.00;;;;;22.69;54.35;101915.44;5070069;27;45610;-65
2021/06/12 06:45:21;;;;;;;;;3.75;2.00;;;;;22.80;53.57;101909.47;5070890;27;45582;-64
2021/06/12 06:47:48;;;;;;;;;1.00;1.00;;;;;22.92;54.05;101915.94;5071233;27;45643;-62
2021/06/12 06:50:16;;;;;;;;;4.00;2.00;;;;;22.92;53.00;101907.84;5068933;27;45534;-65
2021/06/12 06:52:42;;;;;;;;;2.00;1.00;;;;;22.94;53.51;101911.16;5071781;27;45562;-65
2021/06/12 06:55:08;;;;;;;;;2.00;2.00;;;;;23.02;53.85;101912.03;5070496;27;45648;-62
2021/06/12 06:57:33;;;;;;;;;2.50;2.00;;;;;23.15;53.75;101910.22;5072606;27;45511;-65
2021/06/12 06:59:59;;;;;;;;;3.00;2.00;;;;;23.24;53.00;101910.84;5070706;27;45575;-63
2021/06/12 07:02:24;;;;;;;;;3.50;3.00;;;;;23.38;52.93;101912.53;5071630;27;45552;-62
2021/06/12 07:04:50;;;;;;;;;3.00;3.00;;;;;23.55;52.74;101904.03;5070122;27;49627;-65
2021/06/12 07:07:15;;;;;;;;;4.00;3.00;;;;;23.72;52.68;101907.97;5071518;27;45792;-63
2021/06/12 07:09:40;;;;;;;;;2.00;2.00;;;;;23.93;52.31;101916.91;5069181;27;46650;-63
2021/06/12 07:12:08;;;;;;;;;4.00;3.50;;;;;24.15;51.55;101915.63;5070236;27;45535;-65
2021/06/12 07:14:34;;;;;;;;;2.75;2.25;;;;;24.39;51.45;101913.28;5068545;27;46030;-65
2021/06/12 07:16:59;;;;;;;;;2.00;2.00;;;;;24.58;51.56;101927.78;5070211;27;46796;-63
2021/06/12 07:19:25;;;;;;;;;3.25;3.00;;;;;24.73;50.29;101924.81;5072347;27;45497;-65
2021/06/12 07:21:50;;;;;;;;;3.00;3.00;;;;;24.86;50.28;101925.59;5070065;27;45481;-65
2021/06/12 07:24:15;;;;;;;;;2.00;2.00;;;;;24.97;49.89;101926.75;5067024;27;45630;-63
2021/06/12 07:26:42;;;;;;;;;2.00;2.00;;;;;25.09;49.50;101927.72;5078230;27;45594;-65
2021/06/12 07:29:10;;;;;;;;;3.50;2.00;;;;;25.33;49.27;101940.75;5068168;27;45529;-65
2021/06/12 07:31:37;;;;;;;;;2.00;2.00;;;;;25.49;48.72;101937.50;5070968;27;45532;-63
2021/06/12 07:34:03;;;;;;;;;1.00;1.00;;;;;25.73;48.72;101935.84;5069771;27;45659;-64
2021/06/12 07:36:29;;;;;;;;;2.50;1.00;;;;;25.99;48.28;101933.97;5069528;27;46264;-65
2021/06/12 07:38:54;;;;;;;;;1.00;1.00;;;;;26.24;47.73;101940.19;5073731;27;45767;-63
2021/06/12 07:41:20;;;;;;;;;1.50;1.00;;;;;26.50;46.93;101952.59;5069426;27;45707;-65
2021/06/12 07:43:45;;;;;;;;;4.25;2.00;;;;;26.72;46.23;101950.28;5068626;27;45633;-63
2021/06/12 07:46:10;;;;;;;;;3.50;2.00;;;;;26.99;46.41;101964.31;5068373;27;47070;-63
2021/06/12 07:48:36;;;;;;;;;2.00;2.00;;;;;27.37;45.86;101968.59;5077753;27;45687;-63
2021/06/12 07:51:01;;;;;;;;;3.00;3.00;;;;;27.73;45.14;101965.97;5070657;27;45429;-65
2021/06/12 07:53:27;;;;;;;;;2.00;2.00;;;;;28.08;44.72;101972.28;5069596;27;45547;-63
2021/06/12 07:55:52;;;;;;;;;2.00;2.00;;;;;28.58;43.20;101961.94;5074436;27;46600;-63
2021/06/12 07:58:17;;;;;;;;;3.00;3.00;;;;;30.21;41.90;101953.09;5077438;27;45544;-64
2021/06/12 08:00:43;;;;;;;;;2.00;1.50;;;;;32.54;38.26;101953.88;5075052;27;45611;-65
2021/06/12 08:03:08;;;;;;;;;1.00;1.00;;;;;34.68;35.94;101965.88;5071437;27;45719;-64
2021/06/12 08:05:33;;;;;;;;;1.25;1.25;;;;;37.30;32.58;101967.56;5075127;27;45965;-63
2021/06/12 08:07:59;;;;;;;;;2.00;1.25;;;;;39.39;30.44;101975.44;5075497;27;45335;-64
2021/06/12 08:10:24;;;;;;;;;2.50;2.50;;;;;41.10;27.51;101976.66;5071279;27;45852;-65
2021/06/12 08:12:50;;;;;;;;;2.50;2.50;;;;;42.41;26.15;101984.53;5068410;27;45345;-63
2021/06/12 08:15:15;;;;;;;;;3.75;2.75;;;;;43.35;24.64;101982.13;5074139;27;45511;-64
2021/06/12 08:17:41;;;;;;;;;3.00;2.25;;;;;44.15;24.46;101989.19;5072821;27;45499;-64
2021/06/12 08:20:07;;;;;;;;;2.00;2.00;;;;;44.81;22.22;101988.06;5065737;27;45674;-65
2021/06/12 08:22:32;;;;;;;;;3.00;2.75;;;;;44.89;22.54;101991.84;5075888;27;45419;-65
2021/06/12 08:24:58;;;;;;;;;2.75;2.75;;;;;45.15;21.92;101996.13;5069249;27;46748;-64
2021/06/12 08:27:23;;;;;;;;;3.00;3.00;;;;;45.89;21.34;102002.09;5068849;27;45414;-65
2021/06/12 08:29:49;;;;;;;;;2.25;2.25;;;;;46.24;21.33;102007.72;5069623;27;45900;-64
2021/06/12 08:32:15;;;;;;;;;1.75;1.75;;;;;46.28;19.97;101994.66;5063140;27;45488;-65
2021/06/12 08:34:40;;;;;;;;;3.75;2.50;;;;;45.96;20.36;101991.13;5073419;27;46073;-65
2021/06/12 08:37:06;;;;;;;;;2.00;2.00;;;;;46.77;19.67;101998.94;5069092;27;45551;-66
2021/06/12 08:39:32;;;;;;;;;2.75;2.75;;;;;47.71;19.00;101999.53;5068186;27;45621;-64
2021/06/12 08:41:58;;;;;;;;;2.50;2.50;;;;;48.36;19.01;101994.94;5069655;27;45483;-63
2021/06/12 08:44:25;;;;;;;;;2.00;2.00;;;;;48.50;17.68;102006.34;5072532;27;46292;-66
2021/06/12 08:46:51;;;;;;;;;1.00;1.00;;;;;48.01;18.51;102013.63;5069643;27;45526;-66
2021/06/12 08:49:17;;;;;;;;;3.00;3.00;;;;;46.82;18.16;102020.22;5071379;27;45497;-64
2021/06/12 08:51:42;;;;;;;;;4.00;3.50;;;;;44.63;19.37;102015.34;5069045;27;45775;-64
2021/06/12 08:54:08;;;;;;;;;3.75;3.75;;;;;42.52;20.61;102017.13;5070059;27;46400;-64
2021/06/12 08:56:34;;;;;;;;;2.75;2.75;;;;;41.20;22.10;102008.72;5072300;27;45493;-64
2021/06/12 08:58:59;;;;;;;;;3.25;3.00;;;;;40.19;22.34;102014.25;5070671;27;45719;-63
2021/06/12 09:01:25;;;;;;;;;3.25;3.25;;;;;39.35;23.64;102021.44;5069768;27;45455;-64
2021/06/12 09:03:51;;;;;;;;;2.50;2.00;;;;;38.61;24.08;102024.47;5071801;27;46538;-63
2021/06/12 09:06:19;;;;;;;;;4.00;4.00;;;;;38.40;24.67;102024.03;5069153;27;45614;-64
2021/06/12 09:08:45;;;;;;;;;2.25;2.25;;;;;38.54;24.92;102027.66;5074734;27;45403;-64
2021/06/12 09:11:19;;;;;;;;;5.00;4.00;;;;;37.99;24.88;102013.84;5067063;27;45633;-65
2021/06/12 09:13:58;;;;;;;;;5.00;5.00;;;;;37.58;25.78;102009.81;5075488;27;46128;-66
2021/06/12 09:16:40;;;;;;;;;5.50;4.75;;;;;38.57;24.87;102020.69;5070308;27;45498;-63
2021/06/12 09:19:13;;;;;;;;;4.75;3.50;;;;;39.76;24.11;102012.06;5066883;27;45462;-65
2021/06/12 09:21:41;;;;;;;;;4.50;4.50;;;;;40.70;23.37;102004.47;5072590;27;45516;-65
2021/06/12 09:24:19;;;;;;;;;6.25;5.50;;;;;41.38;23.54;102010.34;5067205;27;45830;-65
2021/06/12 09:26:58;;;;;;;;;9.00;5.75;;;;;41.51;23.15;102018.81;5071708;27;45432;-63
2021/06/12 09:29:35;;;;;;;;;6.00;4.75;;;;;41.27;22.71;102011.81;5064694;27;45698;-63
2021/06/12 09:32:00;;;;;;;;;5.50;4.25;;;;;40.93;23.48;102012.66;5071076;27;45508;-64
2021/06/12 09:34:26;;;;;;;;;7.25;5.50;;;;;40.85;23.48;102014.25;5069932;27;45452;-65
2021/06/12 09:36:52;;;;;;;;;7.00;6.25;;;;;41.04;22.87;102022.25;5068078;27;45500;-66
2021/06/12 09:39:23;;;;;;;;;7.25;5.75;;;;;41.13;23.14;102013.97;5068342;27;45585;-63
2021/06/12 09:41:54;;;;;;;;;6.00;6.00;;;;;41.08;22.76;102014.94;5065909;27;45611;-65
2021/06/12 09:44:32;;;;;;;;;7.00;7.00;;;;;40.84;22.64;102009.88;5065385;27;45560;-65
2021/06/12 09:46:57;;;;;;;;;5.50;5.50;;;;;40.46;23.48;102017.91;5071707;27;45373;-66
2021/06/12 09:49:32;;;;;;;;;7.75;7.00;;;;;40.09;23.72;102014.56;5075517;27;45420;-64
2021/06/12 09:52:15;;;;;;;;;7.50;7.50;;;;;39.64;24.13;102018.22;5067438;27;45797;-66
2021/06/12 09:54:43;;;;;;;;;9.75;6.50;;;;;39.56;23.33;102013.44;5072059;27;47199;-64
2021/06/12 09:57:12;;;;;;;;;6.00;5.50;;;;;39.26;24.10;102015.81;5071976;27;45565;-65
2021/06/12 09:59:40;;;;;;;;;10.00;8.50;;;;;38.90;24.92;102021.38;5068667;27;45535;-64
2021/06/12 10:02:05;;;;;;;;;7.25;6.50;;;;;38.76;24.28;102007.56;5068631;27;45485;-64
2021/06/12 10:04:32;;;;;;;;;6.25;6.25;;;;;38.81;25.44;102020.44;5069965;27;45478;-64
2021/06/12 10:06:57;;;;;;;;;6.00;6.00;;;;;38.93;24.73;102020.75;5067306;27;45554;-65
2021/06/12 10:09:24;;;;;;;;;7.50;7.50;;;;;38.93;24.72;102018.00;5069176;27;46477;-66
2021/06/12 10:11:50;;;;;;;;;7.25;7.00;;;;;38.78;24.68;102010.03;5070295;27;45448;-65
2021/06/12 10:14:17;;;;;;;;;8.50;6.50;;;;;38.85;24.50;102015.91;5066491;27;45613;-64
2021/06/12 10:16:44;;;;;;;;;7.50;6.75;;;;;38.92;23.60;102016.34;5073308;27;45494;-63
2021/06/12 10:19:13;;;;;;;;;7.00;7.00;;;;;38.69;24.26;102012.69;5067848;27;45558;-63
2021/06/12 10:21:39;;;;;;;;;9.50;8.75;;;;;38.69;24.95;102012.69;5074334;27;45530;-66
2021/06/12 10:24:09;;;;;;;;;9.75;9.50;;;;;38.67;24.76;102010.22;5068000;27;47499;-65
2021/06/12 10:26:35;;;;;;;;;6.25;6.25;;;;;38.86;24.79;102012.03;5069588;27;45504;-65
2021/06/12 10:29:01;;;;;;;;;8.75;7.75;;;;;38.85;25.22;102013.16;5071177;27;45386;-64
2021/06/12 10:31:30;;;;;;;;;11.00;11.00;;;;;38.86;24.14;102009.28;5069483;27;45495;-65
2021/06/12 10:33:56;;;;;;;;;10.00;9.00;;;;;38.94;24.43;102008.56;5071217;27;46174;-66
2021/06/12 10:36:23;;;;;;;;;9.75;9.25;;;;;39.12;24.66;102015.88;5067970;27;46450;-64
2021/06/12 10:38:51;;;;;;;;;9.00;7.25;;;;;39.07;24.63;102021.53;5068962;27;45574;-65
2021/06/12 10:41:20;;;;;;;;;10.00;9.00;;;;;39.28;24.43;102027.38;5072236;27;45540;-66
2021/06/12 10:43:46;;;;;;;;;10.75;10.50;;;;;39.47;24.53;102016.16;5072014;27;45491;-65
2021/06/12 10:46:14;;;;;;;;;10.00;10.00;;;;;39.31;24.26;102023.16;5073444;27;45582;-64
2021/06/12 10:48:54;;;;;;;;;9.00;9.00;;;;;39.12;24.69;102031.63;5075300;27;45401;-63
2021/06/12 10:51:25;;;;;;;;;10.00;9.00;;;;;38.92;24.65;102021.88;5071401;27;45441;-66
2021/06/12 10:54:08;;;;;;;;;8.00;6.25;;;;;38.52;24.88;102032.66;5072999;27;46572;-64
2021/06/12 10:56:38;;;;;;;;;8.50;7.00;;;;;38.47;25.09;102033.56;5076498;27;46233;-63
2021/06/12 10:59:05;;;;;;;;;6.75;6.75;;;;;38.67;24.83;102026.00;5070656;27;45391;-63
2021/06/12 11:01:31;;;;;;;;;8.50;7.75;;;;;38.86;24.28;102032.19;5079572;27;45467;-65
2021/06/12 11:04:10;;;;;;;;;7.00;6.00;;;;;38.95;24.26;102029.56;5067055;27;47958;-65
2021/06/12 11:09:26;;;;;;;;;6.25;6.25;;;;;39.10;24.29;102033.91;5070048;27;45561;-65
2021/06/12 11:11:54;;;;;;;;;6.25;6.00;;;;;39.18;23.28;102040.63;5066428;27;45578;-66
2021/06/12 11:14:22;;;;;;;;;3.50;3.50;;;;;39.20;24.30;102030.09;5069660;27;45613;-66
2021/06/12 11:17:12;;;;;;;;;4.25;4.00;;;;;39.22;24.30;102039.69;5071603;27;45410;-64
2021/06/12 11:19:40;;;;;;;;;5.75;5.00;;;;;38.87;23.58;102041.28;5072311;27;45559;-64
2021/06/12 11:22:30;;;;;;;;;4.00;3.25;;;;;38.43;24.07;102040.81;5071867;27;45540;-64
2021/06/12 11:25:00;;;;;;;;;3.00;2.75;;;;;38.37;24.32;102036.53;5069634;27;46326;-64
2021/06/12 11:27:30;;;;;;;;;5.00;4.00;;;;;38.52;24.08;102029.91;5069859;27;45467;-63
2021/06/12 11:30:17;;;;;;;;;2.75;2.75;;;;;38.85;24.87;102026.97;5072364;27;45417;-65